createdAt,value
2023-01-10T00:00:14.452Z,93.79
2023-01-10T00:01:14.402Z,93.27
2023-01-10T00:02:14.412Z,93.33
2023-01-10T00:03:14.359Z,93.74
2023-01-10T00:04:14.357Z,93.23
2023-01-10T00:05:14.321Z,93.23
2023-01-10T00:06:14.238Z,93.54
2023-01-10T00:07:14.189Z,93.74
2023-01-10T00:08:14.157Z,93.12
2023-01-10T00:09:14.127Z,93.43
2023-01-10T00:10:14.088Z,92.92
2023-01-10T00:11:14.111Z,92.92
2023-01-10T00:12:14.043Z,93.54
2023-01-10T00:13:14.003Z,93.37
2023-01-10T00:14:13.994Z,93.02
2023-01-10T00:15:13.925Z,92.82
2023-01-10T00:16:13.958Z,92.61
2023-01-10T00:17:13.846Z,93.23
2023-01-10T00:18:13.817Z,93.37
2023-01-10T00:19:13.857Z,93.68
2023-01-10T00:20:13.736Z,93.74
2023-01-10T00:21:13.702Z,93.58
2023-01-10T00:22:13.718Z,93.48
2023-01-10T00:23:13.635Z,93.33
2023-01-10T00:24:13.603Z,93.23
2023-01-10T00:25:13.630Z,93.23
2023-01-10T00:26:13.528Z,93.23
2023-01-10T00:27:13.495Z,93.64
2023-01-10T00:28:13.463Z,93.43
2023-01-10T00:29:13.427Z,93.12
2023-01-10T00:30:13.453Z,93.43
2023-01-10T00:31:13.382Z,93.12
2023-01-10T00:32:13.325Z,93.48
2023-01-10T00:33:13.289Z,93.16
2023-01-10T00:34:13.261Z,93.23
2023-01-10T00:35:13.277Z,93.37
2023-01-10T00:36:13.179Z,93.58
2023-01-10T00:37:13.167Z,93.58
2023-01-10T00:38:13.112Z,93.79
2023-01-10T00:39:13.075Z,93.58
2023-01-10T00:40:13.109Z,93.48
2023-01-10T00:41:13.011Z,93.79
2023-01-10T00:42:12.981Z,93.43
2023-01-10T00:43:12.935Z,93.48
2023-01-10T00:44:12.914Z,93.48
2023-01-10T00:45:12.874Z,93.48
2023-01-10T00:46:12.942Z,93.37
2023-01-10T00:47:12.804Z,93.37
2023-01-10T00:48:12.768Z,93.79
2023-01-10T00:49:12.728Z,93.68
2023-01-10T00:50:12.706Z,93.79
2023-01-10T00:51:12.727Z,93.74
2023-01-10T00:52:12.627Z,93.84
2023-01-10T00:53:12.593Z,94.09
2023-01-10T00:54:12.558Z,94.20
2023-01-10T00:55:12.524Z,93.88
2023-01-10T00:56:12.498Z,93.99
2023-01-10T00:57:12.517Z,94.30
2023-01-10T00:58:12.415Z,94.13
2023-01-10T00:59:12.378Z,94.20
2023-01-10T01:00:12.364Z,94.30
2023-01-10T01:01:12.414Z,94.40
2023-01-10T01:02:12.349Z,94.30
2023-01-10T01:03:12.309Z,94.81
2023-01-10T01:04:12.222Z,94.55
2023-01-10T01:05:12.177Z,94.55
2023-01-10T01:06:12.225Z,94.30
2023-01-10T01:07:12.115Z,95.74
2023-01-10T01:08:12.069Z,95.33
2023-01-10T01:09:12.051Z,95.27
2023-01-10T01:10:12.012Z,95.27
2023-01-10T01:11:11.961Z,95.17
2023-01-10T01:12:11.996Z,95.27
2023-01-10T01:13:11.891Z,95.06
2023-01-10T01:14:11.857Z,95.17
2023-01-10T01:15:11.833Z,95.27
2023-01-10T01:16:11.826Z,95.27
2023-01-10T01:17:11.755Z,95.17
2023-01-10T01:18:11.783Z,94.96
2023-01-10T01:19:11.682Z,95.17
2023-01-10T01:20:11.678Z,95.68
2023-01-10T01:21:11.634Z,94.96
2023-01-10T01:22:11.578Z,94.96
2023-01-10T01:23:11.568Z,95.17
2023-01-10T01:24:11.565Z,95.17
2023-01-10T01:25:11.471Z,95.06
2023-01-10T01:26:11.435Z,95.00
2023-01-10T01:27:11.406Z,95.17
2023-01-10T01:28:11.376Z,95.17
2023-01-10T01:29:11.333Z,95.37
2023-01-10T01:30:11.349Z,95.17
2023-01-10T01:31:11.295Z,94.90
2023-01-10T01:32:11.247Z,95.21
2023-01-10T01:33:11.190Z,95.21
2023-01-10T01:34:11.162Z,95.17
2023-01-10T01:35:11.136Z,95.21
2023-01-10T01:36:11.140Z,95.21
2023-01-10T01:37:11.065Z,95.00
2023-01-10T01:38:11.017Z,95.21
2023-01-10T01:39:11.045Z,95.42
2023-01-10T01:40:10.956Z,95.31
2023-01-10T01:41:10.921Z,95.73
2023-01-10T01:42:10.883Z,95.62
2023-01-10T01:43:10.850Z,95.73
2023-01-10T01:44:10.806Z,95.83
2023-01-10T01:45:10.839Z,95.21
2023-01-10T01:46:10.758Z,95.31
2023-01-10T01:47:10.703Z,95.42
2023-01-10T01:48:10.667Z,95.83
2023-01-10T01:49:10.640Z,95.83
2023-01-10T01:50:10.600Z,96.45
2023-01-10T01:51:10.630Z,96.34
2023-01-10T01:52:10.538Z,96.34
2023-01-10T01:53:10.500Z,96.34
2023-01-10T01:54:10.457Z,95.83
2023-01-10T01:55:10.429Z,95.42
2023-01-10T01:56:10.447Z,95.42
2023-01-10T01:57:10.365Z,95.48
2023-01-10T01:58:10.317Z,95.42
2023-01-10T01:59:10.288Z,95.42
2023-01-10T02:00:10.253Z,95.52
2023-01-10T02:01:10.259Z,95.17
2023-01-10T02:02:10.299Z,95.52
2023-01-10T02:03:10.199Z,95.83
2023-01-10T02:04:10.173Z,96.24
2023-01-10T02:05:10.072Z,95.83
2023-01-10T02:06:10.036Z,95.77
2023-01-10T02:07:10.014Z,96.28
2023-01-10T02:08:10.038Z,96.18
2023-01-10T02:09:09.936Z,96.59
2023-01-10T02:10:09.895Z,96.80
2023-01-10T02:11:09.873Z,96.70
2023-01-10T02:12:09.829Z,97.16
2023-01-10T02:13:09.849Z,97.26
2023-01-10T02:14:09.842Z,97.77
2023-01-10T02:15:09.772Z,97.56
2023-01-10T02:16:09.736Z,97.88
2023-01-10T02:17:09.652Z,97.98
2023-01-10T02:18:09.626Z,97.98
2023-01-10T02:19:09.641Z,97.98
2023-01-10T02:20:09.550Z,97.98
2023-01-10T02:21:09.507Z,97.88
2023-01-10T02:22:09.483Z,98.03
2023-01-10T02:23:09.436Z,98.03
2023-01-10T02:24:09.409Z,97.98
2023-01-10T02:25:09.464Z,97.31
2023-01-10T02:26:09.329Z,97.63
2023-01-10T02:27:09.293Z,97.21
2023-01-10T02:28:09.257Z,97.42
2023-01-10T02:29:09.237Z,97.21
2023-01-10T02:30:09.222Z,97.73
2023-01-10T02:31:09.251Z,97.27
2023-01-10T02:32:09.115Z,97.58
2023-01-10T02:33:09.084Z,97.73
2023-01-10T02:34:09.063Z,97.52
2023-01-10T02:35:09.011Z,97.42
2023-01-10T02:36:08.983Z,97.52
2023-01-10T02:37:09.022Z,97.31
2023-01-10T02:38:08.921Z,97.94
2023-01-10T02:39:08.875Z,97.94
2023-01-10T02:40:08.855Z,98.14
2023-01-10T02:41:08.814Z,97.73
2023-01-10T02:42:08.835Z,98.08
2023-01-10T02:43:08.763Z,97.83
2023-01-10T02:44:08.698Z,98.08
2023-01-10T02:45:08.663Z,97.98
2023-01-10T02:46:08.675Z,97.98
2023-01-10T02:47:08.648Z,97.98
2023-01-10T02:48:08.572Z,98.19
2023-01-10T02:49:08.521Z,98.29
2023-01-10T02:50:08.492Z,98.70
2023-01-10T02:51:08.453Z,98.44
2023-01-10T02:52:08.488Z,98.75
2023-01-10T02:53:08.384Z,98.54
2023-01-10T02:54:08.411Z,98.58
2023-01-10T02:55:08.322Z,99.16
2023-01-10T02:56:08.271Z,99.68
2023-01-10T02:57:08.239Z,99.47
2023-01-10T02:58:08.277Z,99.88
2023-01-10T02:59:08.175Z,99.72
2023-01-10T03:00:08.140Z,99.93
2023-01-10T03:01:08.140Z,99.99
2023-01-10T03:02:08.117Z,99.93
2023-01-10T03:03:08.040Z,99.93
2023-01-10T03:04:08.065Z,99.99
2023-01-10T03:05:08.040Z,99.87
2023-01-10T03:06:07.926Z,99.98
2023-01-10T03:07:07.888Z,99.99
2023-01-10T03:08:07.860Z,99.77
2023-01-10T03:09:07.838Z,99.99
2023-01-10T03:10:07.854Z,99.99
2023-01-10T03:11:07.751Z,99.99
2023-01-10T03:12:07.721Z,99.99
2023-01-10T03:13:07.680Z,99.99
2023-01-10T03:14:07.643Z,99.99
2023-01-10T03:15:07.609Z,99.99
2023-01-10T03:16:07.806Z,99.99
2023-01-10T03:17:07.534Z,99.99
2023-01-10T03:18:07.508Z,99.99
2023-01-10T03:19:07.465Z,99.99
2023-01-10T03:20:07.429Z,99.99
2023-01-10T03:21:07.396Z,99.99
2023-01-10T03:22:07.449Z,99.99
2023-01-10T03:23:07.335Z,99.99
2023-01-10T03:24:07.287Z,99.99
2023-01-10T03:25:07.289Z,99.99
2023-01-10T03:26:07.218Z,99.99
2023-01-10T03:27:07.192Z,99.99
2023-01-10T03:28:07.211Z,99.99
2023-01-10T03:29:07.120Z,99.99
2023-01-10T03:30:07.079Z,99.99
2023-01-10T03:31:07.111Z,99.99
2023-01-10T03:32:06.992Z,99.99
2023-01-10T03:33:06.984Z,99.99
2023-01-10T03:34:06.990Z,99.99
2023-01-10T03:35:06.899Z,99.99
2023-01-10T03:36:06.868Z,99.99
2023-01-10T03:37:06.822Z,99.99
2023-01-10T03:38:06.796Z,99.99
2023-01-10T03:39:06.740Z,99.99
2023-01-10T03:40:06.777Z,99.99
2023-01-10T03:41:06.718Z,99.99
2023-01-10T03:42:06.667Z,99.99
2023-01-10T03:43:06.627Z,99.99
2023-01-10T03:44:07.075Z,99.99
2023-01-10T03:45:06.542Z,99.99
2023-01-10T03:46:06.625Z,99.99
2023-01-10T03:47:06.464Z,99.99
2023-01-10T03:48:06.436Z,99.99
2023-01-10T03:49:06.401Z,99.99
2023-01-10T03:50:06.424Z,99.99
2023-01-10T03:51:06.333Z,99.99
2023-01-10T03:52:06.295Z,99.99
2023-01-10T03:53:06.255Z,99.99
2023-01-10T03:54:06.221Z,99.99
2023-01-10T03:55:06.247Z,99.99
2023-01-10T03:56:06.153Z,99.99
2023-01-10T03:57:06.112Z,99.99
2023-01-10T03:58:06.069Z,99.99
2023-01-10T03:59:06.033Z,99.99
2023-01-10T04:00:06.006Z,99.99
2023-01-10T04:01:06.099Z,99.99
2023-01-10T04:02:06.110Z,99.99
2023-01-10T04:03:05.901Z,99.99
2023-01-10T04:04:05.921Z,99.99
2023-01-10T04:05:05.836Z,99.99
2023-01-10T04:06:05.857Z,99.99
2023-01-10T04:07:05.758Z,99.99
2023-01-10T04:08:05.736Z,99.99
2023-01-10T04:09:05.694Z,99.99
2023-01-10T04:10:05.646Z,99.99
2023-01-10T04:11:05.614Z,99.99
2023-01-10T04:12:05.662Z,99.99
2023-01-10T04:13:05.542Z,99.99
2023-01-10T04:14:05.527Z,99.99
2023-01-10T04:15:05.476Z,99.99
2023-01-10T04:16:05.446Z,99.99
2023-01-10T04:17:05.410Z,99.99
2023-01-10T04:18:05.418Z,99.99
2023-01-10T04:19:05.329Z,99.99
2023-01-10T04:20:05.299Z,99.99
2023-01-10T04:21:05.271Z,99.99
2023-01-10T04:22:05.229Z,99.99
2023-01-10T04:23:05.203Z,99.99
2023-01-10T04:24:05.220Z,99.99
2023-01-10T04:25:05.114Z,99.99
2023-01-10T04:26:05.091Z,99.99
2023-01-10T04:27:05.051Z,99.99
2023-01-10T04:28:05.010Z,99.99
2023-01-10T04:29:04.981Z,99.99
2023-01-10T04:30:05.008Z,99.99
2023-01-10T04:31:04.910Z,99.99
2023-01-10T04:32:04.863Z,99.99
2023-01-10T04:33:04.859Z,99.99
2023-01-10T04:34:04.801Z,99.99
2023-01-10T04:35:04.776Z,99.99
2023-01-10T04:36:04.784Z,99.99
2023-01-10T04:37:04.709Z,99.99
2023-01-10T04:38:04.679Z,99.99
2023-01-10T04:39:04.633Z,99.99
2023-01-10T04:40:04.596Z,99.99
2023-01-10T04:41:04.556Z,99.99
2023-01-10T04:42:04.666Z,99.99
2023-01-10T04:43:04.488Z,99.99
2023-01-10T04:44:04.496Z,99.99
2023-01-10T04:45:04.419Z,99.99
2023-01-10T04:46:04.408Z,99.99
2023-01-10T04:47:04.354Z,99.99
2023-01-10T04:48:04.310Z,99.99
2023-01-10T04:49:04.336Z,99.99
2023-01-10T04:50:04.227Z,99.99
2023-01-10T04:51:04.204Z,99.99
2023-01-10T04:52:04.182Z,99.99
2023-01-10T04:53:04.121Z,99.99
2023-01-10T04:54:04.153Z,99.99
2023-01-10T04:55:04.051Z,99.99
2023-01-10T04:56:04.037Z,99.99
2023-01-10T04:57:03.997Z,99.99
2023-01-10T04:58:03.968Z,99.99
2023-01-10T04:59:03.975Z,99.99
2023-01-10T05:00:03.883Z,99.99
2023-01-10T05:01:03.876Z,99.99
2023-01-10T05:02:03.936Z,99.99
2023-01-10T05:03:03.978Z,99.99
2023-01-10T05:04:03.791Z,99.99
2023-01-10T05:05:03.697Z,99.99
2023-01-10T05:06:03.674Z,99.99
2023-01-10T05:07:03.639Z,99.99
2023-01-10T05:08:03.589Z,99.99
2023-01-10T05:09:03.616Z,99.99
2023-01-10T05:10:03.528Z,99.99
2023-01-10T05:11:03.496Z,99.99
2023-01-10T05:12:03.461Z,99.99
2023-01-10T05:13:03.428Z,99.99
2023-01-10T05:14:03.451Z,99.99
2023-01-10T05:15:03.363Z,99.99
2023-01-10T05:16:03.332Z,99.99
2023-01-10T05:17:03.284Z,99.99
2023-01-10T05:18:03.246Z,99.99
2023-01-10T05:19:03.223Z,99.99
2023-01-10T05:20:06.265Z,99.99
2023-01-10T05:21:03.137Z,99.99
2023-01-10T05:22:03.119Z,99.99
2023-01-10T05:23:03.068Z,99.99
2023-01-10T05:24:03.027Z,99.99
2023-01-10T05:25:02.991Z,99.99
2023-01-10T05:26:03.015Z,99.99
2023-01-10T05:27:02.925Z,99.99
2023-01-10T05:28:02.893Z,99.99
2023-01-10T05:29:02.861Z,99.99
2023-01-10T05:30:02.820Z,99.99
2023-01-10T05:31:02.784Z,99.99
2023-01-10T05:32:02.918Z,99.99
2023-01-10T05:33:02.712Z,99.95
2023-01-10T05:34:02.679Z,99.99
2023-01-10T05:35:02.647Z,99.99
2023-01-10T05:36:02.606Z,99.99
2023-01-10T05:37:02.580Z,99.54
2023-01-10T05:38:02.601Z,99.64
2023-01-10T05:39:02.510Z,99.64
2023-01-10T05:40:02.462Z,99.95
2023-01-10T05:41:02.439Z,99.33
2023-01-10T05:42:02.407Z,99.64
2023-01-10T05:43:02.363Z,99.74
2023-01-10T05:44:02.398Z,99.13
2023-01-10T05:45:02.378Z,99.13
2023-01-10T05:46:02.325Z,99.23
2023-01-10T05:47:02.219Z,99.39
2023-01-10T05:48:02.182Z,99.29
2023-01-10T05:49:02.149Z,99.23
2023-01-10T05:50:02.169Z,99.29
2023-01-10T05:51:02.096Z,99.43
2023-01-10T05:52:02.047Z,98.92
2023-01-10T05:53:02.006Z,98.82
2023-01-10T05:54:01.981Z,98.71
2023-01-10T05:55:02.010Z,98.67
2023-01-10T05:56:01.909Z,98.77
2023-01-10T05:57:01.887Z,99.02
2023-01-10T05:58:01.861Z,98.77
2023-01-10T05:59:07.998Z,98.57
2023-01-10T06:00:03.245Z,98.61
2023-01-10T06:01:01.785Z,98.92
2023-01-10T06:02:01.773Z,99.02
2023-01-10T06:03:01.702Z,98.88
2023-01-10T06:04:01.630Z,98.36
2023-01-10T06:05:01.587Z,98.57
2023-01-10T06:06:01.608Z,98.36
2023-01-10T06:07:01.522Z,98.57
2023-01-10T06:08:01.514Z,98.36
2023-01-10T06:09:01.456Z,98.77
2023-01-10T06:10:01.430Z,98.25
2023-01-10T06:11:01.442Z,98.15
2023-01-10T06:12:01.349Z,98.25
2023-01-10T06:13:01.315Z,98.25
2023-01-10T06:14:01.279Z,98.67
2023-01-10T06:15:01.257Z,98.46
2023-01-10T06:16:01.359Z,98.46
2023-01-10T06:17:01.170Z,98.67
2023-01-10T06:18:01.138Z,98.57
2023-01-10T06:19:01.106Z,98.36
2023-01-10T06:20:01.071Z,98.57
2023-01-10T06:21:01.039Z,98.57
2023-01-10T06:22:01.055Z,98.46
2023-01-10T06:23:00.968Z,98.57
2023-01-10T06:24:00.936Z,98.46
2023-01-10T06:25:02.433Z,98.36
2023-01-10T06:26:00.849Z,98.46
2023-01-10T06:27:00.897Z,98.57
2023-01-10T06:28:00.788Z,98.25
2023-01-10T06:29:00.758Z,98.05
2023-01-10T06:30:00.726Z,98.57
2023-01-10T06:31:00.697Z,98.46
2023-01-10T06:32:00.645Z,98.36
2023-01-10T06:33:00.685Z,98.36
2023-01-10T06:34:00.569Z,98.25
2023-01-10T06:35:00.557Z,98.15
2023-01-10T06:36:00.505Z,98.36
2023-01-10T06:37:00.473Z,98.30
2023-01-10T06:38:00.449Z,98.36
2023-01-10T06:39:00.462Z,98.15
2023-01-10T06:40:00.373Z,98.30
2023-01-10T06:41:00.332Z,98.25
2023-01-10T06:42:00.314Z,98.46
2023-01-10T06:43:00.308Z,98.77
2023-01-10T06:44:00.313Z,98.15
2023-01-10T06:45:00.199Z,98.57
2023-01-10T06:46:00.219Z,98.36
2023-01-10T06:47:00.118Z,98.50
2023-01-10T06:48:00.092Z,98.15
2023-01-10T06:49:00.118Z,98.20
2023-01-10T06:50:00.015Z,98.41
2023-01-10T06:50:59.977Z,98.05
2023-01-10T06:51:59.948Z,97.85
2023-01-10T06:52:59.913Z,97.95
2023-01-10T06:53:59.945Z,98.15
2023-01-10T06:54:59.845Z,97.89
2023-01-10T06:55:59.808Z,97.99
2023-01-10T06:56:59.779Z,97.85
2023-01-10T06:57:59.739Z,97.85
2023-01-10T06:58:59.777Z,98.05
2023-01-10T06:59:59.669Z,97.85
2023-01-10T07:00:59.700Z,97.95
2023-01-10T07:01:59.713Z,97.85
2023-01-10T07:02:59.563Z,97.89
2023-01-10T07:03:59.595Z,98.10
2023-01-10T07:04:59.554Z,97.95
2023-01-10T07:05:59.471Z,98.10
2023-01-10T07:06:59.418Z,97.99
2023-01-10T07:07:59.387Z,97.99
2023-01-10T07:08:59.352Z,97.99
2023-01-10T07:09:59.332Z,97.99
2023-01-10T07:10:59.335Z,98.20
2023-01-10T07:11:59.249Z,98.41
2023-01-10T07:12:59.221Z,98.71
2023-01-10T07:13:59.182Z,98.45
2023-01-10T07:14:59.158Z,98.35
2023-01-10T07:15:59.181Z,98.66
2023-01-10T07:16:59.102Z,98.35
2023-01-10T07:17:59.112Z,98.86
2023-01-10T07:18:59.010Z,98.86
2023-01-10T07:19:58.983Z,98.76
2023-01-10T07:20:59.006Z,98.97
2023-01-10T07:21:58.907Z,99.01
2023-01-10T07:22:58.886Z,99.32
2023-01-10T07:24:00.068Z,99.32
2023-01-10T07:24:58.813Z,99.22
2023-01-10T07:25:58.828Z,99.43
2023-01-10T07:26:58.742Z,99.52
2023-01-10T07:27:58.708Z,99.73
2023-01-10T07:28:58.662Z,99.22
2023-01-10T07:29:58.623Z,99.43
2023-01-10T07:30:58.636Z,99.22
2023-01-10T07:31:58.618Z,99.73
2023-01-10T07:32:58.518Z,99.84
2023-01-10T07:33:58.484Z,99.43
2023-01-10T07:34:58.455Z,99.32
2023-01-10T07:35:58.410Z,99.84
2023-01-10T07:36:58.388Z,99.94
2023-01-10T07:37:58.388Z,99.99
2023-01-10T07:38:58.312Z,99.84
2023-01-10T07:39:58.275Z,99.63
2023-01-10T07:40:58.232Z,99.84
2023-01-10T07:41:58.212Z,99.63
2023-01-10T07:42:58.177Z,99.73
2023-01-10T07:43:58.180Z,99.84
2023-01-10T07:44:58.097Z,99.84
2023-01-10T07:45:58.096Z,99.99
2023-01-10T07:46:58.034Z,99.84
2023-01-10T07:47:58.045Z,99.32
2023-01-10T07:48:57.962Z,99.48
2023-01-10T07:49:57.926Z,99.43
2023-01-10T07:50:57.901Z,99.43
2023-01-10T07:51:57.848Z,99.17
2023-01-10T07:52:57.813Z,99.38
2023-01-10T07:53:57.820Z,99.69
2023-01-10T07:54:57.740Z,99.38
2023-01-10T07:55:57.703Z,99.27
2023-01-10T07:56:57.679Z,99.38
2023-01-10T07:57:57.641Z,99.38
2023-01-10T07:58:57.625Z,98.97
2023-01-10T07:59:57.631Z,98.97
2023-01-10T08:00:57.567Z,98.71
2023-01-10T08:01:57.502Z,98.50
2023-01-10T08:02:57.614Z,98.50
2023-01-10T08:03:57.422Z,98.30
2023-01-10T08:04:57.397Z,98.41
2023-01-10T08:05:57.433Z,98.61
2023-01-10T08:06:57.349Z,98.82
2023-01-10T08:07:57.302Z,99.02
2023-01-10T08:08:57.299Z,98.92
2023-01-10T08:09:57.211Z,98.92
2023-01-10T08:10:57.180Z,99.13
2023-01-10T08:11:57.195Z,99.54
2023-01-10T08:13:01.461Z,99.85
2023-01-10T08:13:57.071Z,98.97
2023-01-10T08:14:57.042Z,99.69
2023-01-10T08:15:57.034Z,99.90
2023-01-10T08:16:57.008Z,99.58
2023-01-10T08:17:56.992Z,99.90
2023-01-10T08:18:56.913Z,99.58
2023-01-10T08:19:56.863Z,99.58
2023-01-10T08:20:56.825Z,99.73
2023-01-10T08:21:56.799Z,99.63
2023-01-10T08:22:56.771Z,99.73
2023-01-10T08:23:56.776Z,99.63
2023-01-10T08:24:56.695Z,99.63
2023-01-10T08:25:56.658Z,99.99
2023-01-10T08:26:56.619Z,99.99
2023-01-10T08:27:56.590Z,99.94
2023-01-10T08:28:56.555Z,99.99
2023-01-10T08:29:56.579Z,99.99
2023-01-10T08:30:56.520Z,99.99
2023-01-10T08:31:56.447Z,99.99
2023-01-10T08:32:56.412Z,99.99
2023-01-10T08:33:56.383Z,99.99
2023-01-10T08:34:56.333Z,99.99
2023-01-10T08:35:56.379Z,99.99
2023-01-10T08:36:56.268Z,99.85
2023-01-10T08:37:56.290Z,99.64
2023-01-10T08:38:56.199Z,99.43
2023-01-10T08:39:56.165Z,99.64
2023-01-10T08:40:56.128Z,99.70
2023-01-10T08:41:56.093Z,99.70
2023-01-10T08:42:56.113Z,99.90
2023-01-10T08:43:56.021Z,99.14
2023-01-10T08:44:56.002Z,99.29
2023-01-10T08:45:55.960Z,98.21
2023-01-10T08:46:55.966Z,98.42
2023-01-10T08:47:55.942Z,98.21
2023-01-10T08:48:55.849Z,98.52
2023-01-10T08:49:55.834Z,98.06
2023-01-10T08:50:55.772Z,97.75
2023-01-10T08:51:55.750Z,97.75
2023-01-10T08:52:55.710Z,97.75
2023-01-10T08:53:55.738Z,97.96
2023-01-10T08:54:55.640Z,97.34
2023-01-10T08:55:55.613Z,97.75
2023-01-10T08:56:55.578Z,97.44
2023-01-10T08:57:55.538Z,97.65
2023-01-10T08:58:55.500Z,97.75
2023-01-10T08:59:55.513Z,97.03
2023-01-10T09:00:55.477Z,96.97
2023-01-10T09:01:55.418Z,96.62
2023-01-10T09:02:55.424Z,96.93
2023-01-10T09:03:55.341Z,96.72
2023-01-10T09:04:55.292Z,96.68
2023-01-10T09:05:55.348Z,96.37
2023-01-10T09:06:55.225Z,96.47
2023-01-10T09:07:55.189Z,96.27
2023-01-10T09:08:55.148Z,96.27
2023-01-10T09:09:55.134Z,96.06
2023-01-10T09:10:55.086Z,96.21
2023-01-10T09:11:55.114Z,95.80
2023-01-10T09:12:55.020Z,95.65
2023-01-10T09:13:54.984Z,95.45
2023-01-10T09:14:54.949Z,95.03
2023-01-10T09:15:54.948Z,95.24
2023-01-10T09:16:54.889Z,95.20
2023-01-10T09:17:54.915Z,94.78
2023-01-10T09:18:54.807Z,94.78
2023-01-10T09:19:54.776Z,95.30
2023-01-10T09:20:54.745Z,95.03
2023-01-10T09:21:54.711Z,94.89
2023-01-10T09:22:54.687Z,95.71
2023-01-10T09:23:54.686Z,95.65
2023-01-10T09:24:54.608Z,96.06
2023-01-10T09:25:54.586Z,95.86
2023-01-10T09:26:54.539Z,95.75
2023-01-10T09:27:54.500Z,96.11
2023-01-10T09:28:54.473Z,96.00
2023-01-10T09:29:54.519Z,96.83
2023-01-10T09:30:54.403Z,96.62
2023-01-10T09:31:54.406Z,96.56
2023-01-10T09:32:54.341Z,96.25
2023-01-10T09:33:54.307Z,96.52
2023-01-10T09:34:54.255Z,97.08
2023-01-10T09:35:54.298Z,97.28
2023-01-10T09:36:54.203Z,97.18
2023-01-10T09:37:54.161Z,97.64
2023-01-10T09:38:54.125Z,97.74
2023-01-10T09:39:54.090Z,98.15
2023-01-10T09:40:54.070Z,98.67
2023-01-10T09:41:54.071Z,98.46
2023-01-10T09:42:54.003Z,98.05
2023-01-10T09:43:53.951Z,98.36
2023-01-10T09:44:53.911Z,98.36
2023-01-10T09:45:53.885Z,98.36
2023-01-10T09:46:53.992Z,98.57
2023-01-10T09:47:53.863Z,98.36
2023-01-10T09:48:53.795Z,98.67
2023-01-10T09:49:53.764Z,98.25
2023-01-10T09:50:53.742Z,98.46
2023-01-10T09:51:53.671Z,98.15
2023-01-10T09:52:53.655Z,98.57
2023-01-10T09:53:55.657Z,98.36
2023-01-10T09:54:53.566Z,98.15
2023-01-10T09:55:53.529Z,98.36
2023-01-10T09:56:53.489Z,98.57
2023-01-10T09:57:53.506Z,98.57
2023-01-10T09:58:53.425Z,97.80
2023-01-10T09:59:53.458Z,98.21
2023-01-10T10:00:53.400Z,97.75
2023-01-10T10:01:53.316Z,97.86
2023-01-10T10:02:53.302Z,98.00
2023-01-10T10:03:53.416Z,97.75
2023-01-10T10:04:53.217Z,97.34
2023-01-10T10:06:00.906Z,96.73
2023-01-10T10:06:53.148Z,96.47
2023-01-10T10:07:53.131Z,96.94
2023-01-10T10:08:53.147Z,96.02
2023-01-10T10:09:53.044Z,95.92
2023-01-10T10:10:53.013Z,95.09
2023-01-10T10:11:52.974Z,94.99
2023-01-10T10:12:52.940Z,95.50
2023-01-10T10:13:52.903Z,94.68
2023-01-10T10:14:52.915Z,94.78
2023-01-10T10:15:52.881Z,95.30
2023-01-10T10:16:52.795Z,94.99
2023-01-10T10:17:52.773Z,95.15
2023-01-10T10:18:52.760Z,94.43
2023-01-10T10:19:52.724Z,93.82
2023-01-10T10:20:52.722Z,94.02
2023-01-10T10:21:52.646Z,93.67
2023-01-10T10:22:52.615Z,93.36
2023-01-10T10:23:52.574Z,93.16
2023-01-10T10:24:52.553Z,93.21
2023-01-10T10:25:52.497Z,91.82
2023-01-10T10:26:52.507Z,91.72
2023-01-10T10:27:52.424Z,92.13
2023-01-10T10:28:54.940Z,91.99
2023-01-10T10:29:52.354Z,91.67
2023-01-10T10:30:52.325Z,91.57
2023-01-10T10:31:52.351Z,91.78
2023-01-10T10:32:52.311Z,91.37
2023-01-10T10:33:52.273Z,91.33
2023-01-10T10:34:52.200Z,90.71
2023-01-10T10:35:52.152Z,90.50
2023-01-10T10:36:52.198Z,90.81
2023-01-10T10:37:52.083Z,90.40
2023-01-10T10:38:52.048Z,90.20
2023-01-10T10:39:52.018Z,90.20
2023-01-10T10:40:51.989Z,90.30
2023-01-10T10:41:52.002Z,90.05
2023-01-10T10:42:51.926Z,90.50
2023-01-10T10:43:51.877Z,89.89
2023-01-10T10:44:51.841Z,90.34
2023-01-10T10:45:51.839Z,90.75
2023-01-10T10:46:51.842Z,90.75
2023-01-10T10:47:51.744Z,91.47
2023-01-10T10:48:51.742Z,91.27
2023-01-10T10:49:51.676Z,91.37
2023-01-10T10:50:51.636Z,91.57
2023-01-10T10:51:51.618Z,90.71
2023-01-10T10:52:51.651Z,90.81
2023-01-10T10:53:51.544Z,90.24
2023-01-10T10:54:51.498Z,90.50
2023-01-10T10:55:51.478Z,90.40
2023-01-10T10:56:51.440Z,90.40
2023-01-10T10:57:59.748Z,90.09
2023-01-10T10:58:51.431Z,90.56
2023-01-10T10:59:51.335Z,89.99
2023-01-10T11:00:51.402Z,89.78
2023-01-10T11:01:51.405Z,89.58
2023-01-10T11:02:51.229Z,89.78
2023-01-10T11:03:51.210Z,89.99
2023-01-10T11:04:51.242Z,90.67
2023-01-10T11:05:51.128Z,89.95
2023-01-10T11:06:51.108Z,89.78
2023-01-10T11:07:51.057Z,90.50
2023-01-10T11:08:51.033Z,90.40
2023-01-10T11:09:50.996Z,89.69
2023-01-10T11:10:51.008Z,90.20
2023-01-10T11:11:50.938Z,90.20
2023-01-10T11:12:50.946Z,89.99
2023-01-10T11:13:50.896Z,89.99
2023-01-10T11:14:50.828Z,89.69
2023-01-10T11:15:50.822Z,90.67
2023-01-10T11:16:50.829Z,90.05
2023-01-10T11:17:50.731Z,90.05
2023-01-10T11:18:50.694Z,90.05
2023-01-10T11:19:50.668Z,90.46
2023-01-10T11:20:50.641Z,89.43
2023-01-10T11:21:50.607Z,89.43
2023-01-10T11:22:50.866Z,89.33
2023-01-10T11:23:50.534Z,89.54
2023-01-10T11:24:50.498Z,89.33
2023-01-10T11:25:50.456Z,88.56
2023-01-10T11:26:50.441Z,88.56
2023-01-10T11:27:50.388Z,89.37
2023-01-10T11:28:50.420Z,89.27
2023-01-10T11:29:50.315Z,89.42
2023-01-10T11:30:50.316Z,89.21
2023-01-10T11:31:50.286Z,88.80
2023-01-10T11:32:50.221Z,89.42
2023-01-10T11:33:50.203Z,89.72
2023-01-10T11:34:50.255Z,88.90
2023-01-10T11:35:50.119Z,89.72
2023-01-10T11:36:50.096Z,89.93
2023-01-10T11:37:50.053Z,90.30
2023-01-10T11:38:50.030Z,90.09
2023-01-10T11:39:49.992Z,90.20
2023-01-10T11:40:50.021Z,89.93
2023-01-10T11:41:49.924Z,90.50
2023-01-10T11:42:49.888Z,90.20
2023-01-10T11:43:49.876Z,90.03
2023-01-10T11:44:49.860Z,89.31
2023-01-10T11:45:49.832Z,89.11
2023-01-10T11:46:49.806Z,89.31
2023-01-10T11:47:49.712Z,89.62
2023-01-10T11:49:05.482Z,90.44
2023-01-10T11:49:49.644Z,90.44
2023-01-10T11:50:49.612Z,90.44
2023-01-10T11:51:49.584Z,89.72
2023-01-10T11:52:49.592Z,90.14
2023-01-10T11:53:49.507Z,89.42
2023-01-10T11:54:49.482Z,90.03
2023-01-10T11:55:49.444Z,90.34
2023-01-10T11:56:49.412Z,90.14
2023-01-10T11:57:49.376Z,89.72
2023-01-10T11:58:49.395Z,89.31
2023-01-10T11:59:49.306Z,89.11
2023-01-10T12:00:49.275Z,90.03
2023-01-10T12:01:49.241Z,89.52
2023-01-10T12:02:49.214Z,89.01
2023-01-10T12:03:49.171Z,89.62
2023-01-10T12:04:49.223Z,89.11
2023-01-10T12:05:49.100Z,89.52
2023-01-10T12:06:49.072Z,89.42
2023-01-10T12:07:49.029Z,88.39
2023-01-10T12:08:48.998Z,87.16
2023-01-10T12:09:48.970Z,87.77
2023-01-10T12:10:48.980Z,88.18
2023-01-10T12:11:48.896Z,87.88
2023-01-10T12:12:48.866Z,87.84
2023-01-10T12:13:48.853Z,87.84
2023-01-10T12:14:48.802Z,87.32
2023-01-10T12:15:48.755Z,87.53
2023-01-10T12:16:49.456Z,87.22
2023-01-10T12:17:48.694Z,87.22
2023-01-10T12:18:48.654Z,86.71
2023-01-10T12:19:48.626Z,86.50
2023-01-10T12:20:48.592Z,86.05
2023-01-10T12:21:48.556Z,86.40
2023-01-10T12:22:48.587Z,86.40
2023-01-10T12:23:48.489Z,86.05
2023-01-10T12:24:48.448Z,86.15
2023-01-10T12:25:49.136Z,86.46
2023-01-10T12:26:48.382Z,86.77
2023-01-10T12:27:48.352Z,86.98
2023-01-10T12:28:48.375Z,86.98
2023-01-10T12:29:48.286Z,86.25
2023-01-10T12:30:48.257Z,86.57
2023-01-10T12:31:48.210Z,86.36
2023-01-10T12:32:48.188Z,86.36
2023-01-10T12:33:48.152Z,86.15
2023-01-10T12:34:48.168Z,86.46
2023-01-10T12:35:48.093Z,86.98
2023-01-10T12:36:48.178Z,86.66
2023-01-10T12:37:48.036Z,87.08
2023-01-10T12:38:48.008Z,86.98
2023-01-10T12:39:47.941Z,86.87
2023-01-10T12:40:47.911Z,86.25
2023-01-10T12:41:47.958Z,86.57
2023-01-10T12:42:47.853Z,87.08
2023-01-10T12:43:48.685Z,86.57
2023-01-10T12:44:47.774Z,86.66
2023-01-10T12:45:47.790Z,86.15
2023-01-10T12:47:05.824Z,86.15
2023-01-10T12:47:47.761Z,86.98
2023-01-10T12:48:47.651Z,86.87
2023-01-10T12:49:47.606Z,87.18
2023-01-10T12:50:47.588Z,86.66
2023-01-10T12:51:47.531Z,87.08